createdAt,value
2022-12-28T00:02:15.628Z,5.60
2022-12-28T00:04:43.688Z,5.70
2022-12-28T00:07:13.410Z,5.60
2022-12-28T00:09:41.501Z,5.60
2022-12-28T00:12:10.243Z,5.60
2022-12-28T00:14:38.344Z,5.50
2022-12-28T00:17:06.675Z,5.50
2022-12-28T00:19:34.735Z,5.50
2022-12-28T00:22:03.054Z,5.50
2022-12-28T00:24:32.472Z,5.60
2022-12-28T00:27:00.848Z,5.60
2022-12-28T00:29:28.966Z,5.60
2022-12-28T00:31:57.424Z,5.70
2022-12-28T00:34:25.559Z,5.70
2022-12-28T00:37:08.350Z,5.80
2022-12-28T00:39:41.670Z,5.80
2022-12-28T00:42:10.069Z,5.80
2022-12-28T00:44:38.559Z,5.80
2022-12-28T00:47:07.026Z,5.90
2022-12-28T00:49:35.173Z,5.80
2022-12-28T00:52:03.690Z,5.90
2022-12-28T00:54:31.781Z,5.90
2022-12-28T00:57:01.479Z,5.80
2022-12-28T00:59:29.679Z,5.90
2022-12-28T01:01:58.197Z,5.90
2022-12-28T01:04:26.312Z,5.90
2022-12-28T01:06:54.652Z,5.90
2022-12-28T01:09:22.884Z,5.90
2022-12-28T01:11:51.233Z,5.90
2022-12-28T01:14:20.608Z,6.00
2022-12-28T01:16:48.979Z,6.00
2022-12-28T01:19:21.096Z,6.00
2022-12-28T01:21:50.445Z,6.10
2022-12-28T01:24:19.275Z,6.10
2022-12-28T01:26:47.414Z,6.10
2022-12-28T01:29:15.765Z,6.10
2022-12-28T01:31:45.299Z,6.10
2022-12-28T01:34:14.312Z,6.20
2022-12-28T01:36:42.357Z,6.20
2022-12-28T01:39:11.820Z,6.20
2022-12-28T01:41:42.590Z,6.20
2022-12-28T01:44:47.443Z,6.30
2022-12-28T01:47:20.487Z,6.30
2022-12-28T01:49:54.764Z,6.30
2022-12-28T01:52:25.986Z,6.30
2022-12-28T01:54:57.472Z,6.30
2022-12-28T01:57:29.540Z,6.30
2022-12-28T02:00:01.576Z,6.30
2022-12-28T02:02:46.100Z,6.40
2022-12-28T02:05:14.421Z,6.40
2022-12-28T02:07:48.469Z,6.40
2022-12-28T02:10:43.410Z,6.30
2022-12-28T02:13:06.847Z,6.30
2022-12-28T02:15:34.925Z,6.30
2022-12-28T02:18:05.060Z,6.30
2022-12-28T02:20:44.401Z,6.20
2022-12-28T02:23:45.218Z,6.20
2022-12-28T02:26:39.589Z,6.10
2022-12-28T02:29:53.491Z,6.00
2022-12-28T02:32:34.743Z,5.90
2022-12-28T02:35:08.323Z,5.80
2022-12-28T02:37:41.413Z,5.80
2022-12-28T02:40:14.848Z,5.70
2022-12-28T02:42:44.483Z,5.70
2022-12-28T02:48:26.892Z,5.70
2022-12-28T02:51:16.094Z,5.60
2022-12-28T02:54:01.180Z,5.50
2022-12-28T02:56:38.897Z,5.50
2022-12-28T02:59:26.476Z,5.40
2022-12-28T03:02:16.676Z,5.40
2022-12-28T03:05:08.473Z,5.40
2022-12-28T03:08:00.374Z,5.40
2022-12-28T03:10:34.546Z,5.30
2022-12-28T03:13:05.953Z,5.30
2022-12-28T03:15:38.672Z,5.30
2022-12-28T03:18:30.301Z,5.20
2022-12-28T03:21:20.465Z,5.20
2022-12-28T03:24:08.620Z,5.30
2022-12-28T03:26:58.207Z,5.20
2022-12-28T03:29:50.458Z,5.20
2022-12-28T03:32:19.101Z,5.30
2022-12-28T03:34:48.715Z,5.20
2022-12-28T03:37:25.707Z,5.20
2022-12-28T03:40:03.499Z,5.20
2022-12-28T03:42:53.992Z,5.20
2022-12-28T03:45:46.103Z,5.20
2022-12-28T03:48:16.327Z,5.20
2022-12-28T03:50:48.431Z,5.20
2022-12-28T03:53:22.029Z,5.20
2022-12-28T03:55:53.520Z,5.20
2022-12-28T03:58:23.107Z,5.20
2022-12-28T04:00:51.662Z,5.20
2022-12-28T04:03:22.084Z,5.20
2022-12-28T04:05:50.607Z,5.20
2022-12-28T04:08:20.084Z,5.20
2022-12-28T04:10:48.699Z,5.20
2022-12-28T04:13:16.830Z,5.20
2022-12-28T04:15:57.975Z,5.20
2022-12-28T04:18:26.209Z,5.20
2022-12-28T04:20:54.945Z,5.20
2022-12-28T04:23:24.483Z,5.30
2022-12-28T04:26:03.298Z,5.20
2022-12-28T04:28:32.609Z,5.20
2022-12-28T04:31:19.363Z,5.30
2022-12-28T04:33:57.436Z,5.30
2022-12-28T04:36:26.129Z,5.30
2022-12-28T04:38:56.991Z,5.30
2022-12-28T04:41:25.035Z,5.40
2022-12-28T04:43:55.026Z,5.40
2022-12-28T04:46:23.968Z,5.40
2022-12-28T04:48:52.993Z,5.40
2022-12-28T04:51:23.119Z,5.40
2022-12-28T04:53:52.364Z,5.50
2022-12-28T04:56:23.471Z,5.40
2022-12-28T04:58:55.445Z,5.50
2022-12-28T05:01:23.803Z,5.50
2022-12-28T05:03:57.164Z,5.50
2022-12-28T05:06:27.587Z,5.50
2022-12-28T05:08:56.706Z,5.50
2022-12-28T05:11:28.689Z,5.50
2022-12-28T05:13:57.282Z,5.50
2022-12-28T05:16:27.029Z,5.60
2022-12-28T05:18:56.666Z,5.70
2022-12-28T05:21:26.452Z,6.10
2022-12-28T05:23:55.656Z,6.20
2022-12-28T05:26:27.188Z,6.20
2022-12-28T05:28:56.911Z,6.10
2022-12-28T05:31:25.541Z,6.10
2022-12-28T05:33:55.659Z,6.00
2022-12-28T05:36:25.673Z,6.10
2022-12-28T05:38:54.986Z,6.10
2022-12-28T05:41:24.944Z,6.00
2022-12-28T05:43:54.790Z,6.00
2022-12-28T05:46:25.417Z,6.00
2022-12-28T05:48:55.121Z,6.10
2022-12-28T05:51:26.325Z,6.10
2022-12-28T05:53:54.768Z,6.10
2022-12-28T05:56:24.950Z,6.10
2022-12-28T05:58:56.487Z,6.10
2022-12-28T06:01:27.449Z,6.10
2022-12-28T06:03:57.730Z,6.10
2022-12-28T06:06:26.825Z,6.10
2022-12-28T06:08:55.621Z,6.20
2022-12-28T06:11:26.244Z,6.20
2022-12-28T06:13:56.329Z,6.20
2022-12-28T06:16:26.694Z,6.20
2022-12-28T06:18:55.029Z,6.20
2022-12-28T06:21:25.721Z,6.30
2022-12-28T06:23:57.557Z,6.30
2022-12-28T06:26:26.399Z,6.30
2022-12-28T06:28:55.889Z,6.30
2022-12-28T06:31:26.498Z,6.30
2022-12-28T06:33:57.046Z,6.30
2022-12-28T06:36:27.823Z,6.30
2022-12-28T06:38:58.609Z,6.30
2022-12-28T06:41:27.821Z,6.40
2022-12-28T06:43:58.412Z,6.40
2022-12-28T06:46:28.538Z,6.40
2022-12-28T06:48:57.145Z,6.40
2022-12-28T06:51:27.211Z,6.50
2022-12-28T06:53:56.274Z,6.50
2022-12-28T06:56:26.423Z,6.50
2022-12-28T06:59:02.047Z,6.50
2022-12-28T07:01:35.240Z,6.60
2022-12-28T07:04:04.921Z,6.60
2022-12-28T07:06:36.962Z,6.60
2022-12-28T07:09:07.721Z,6.60
2022-12-28T07:11:36.605Z,6.60
2022-12-28T07:14:04.691Z,6.70
2022-12-28T07:19:01.991Z,6.80
2022-12-28T07:21:32.660Z,6.70
2022-12-28T07:24:00.867Z,6.80
2022-12-28T07:26:30.997Z,6.80
2022-12-28T07:29:01.055Z,6.90
2022-12-28T07:31:31.569Z,6.90
2022-12-28T07:34:01.991Z,7.00
2022-12-28T07:36:31.754Z,7.00
2022-12-28T07:39:00.496Z,7.00
2022-12-28T07:41:30.873Z,7.00
2022-12-28T07:44:00.208Z,7.00
2022-12-28T07:46:30.286Z,7.10
2022-12-28T07:49:01.108Z,7.10
2022-12-28T07:51:31.020Z,7.10
2022-12-28T07:54:01.130Z,7.10
2022-12-28T07:56:30.956Z,7.20
2022-12-28T07:59:00.934Z,7.20
2022-12-28T08:01:31.725Z,7.20
2022-12-28T08:04:03.248Z,7.20
2022-12-28T08:06:34.018Z,7.20
2022-12-28T08:09:03.208Z,7.30
2022-12-28T08:11:32.997Z,7.30
2022-12-28T08:14:02.043Z,7.30
2022-12-28T08:16:32.505Z,7.30
2022-12-28T08:19:02.939Z,7.30
2022-12-28T08:21:32.444Z,7.30
2022-12-28T08:24:01.365Z,7.40
2022-12-28T08:26:31.097Z,7.40
2022-12-28T08:29:01.901Z,7.40
2022-12-28T08:31:32.595Z,7.50
2022-12-28T08:34:03.603Z,7.50
2022-12-28T08:36:31.854Z,7.60
2022-12-28T08:39:01.172Z,7.50
2022-12-28T08:41:30.981Z,7.50
2022-12-28T08:43:59.733Z,7.50
2022-12-28T08:46:29.644Z,7.60
2022-12-28T08:48:59.546Z,7.60
2022-12-28T08:51:32.284Z,7.70
2022-12-28T08:54:00.809Z,7.60
2022-12-28T08:56:30.278Z,7.60
2022-12-28T08:58:59.593Z,7.70
2022-12-28T09:01:29.873Z,7.70
2022-12-28T09:04:00.422Z,7.70
2022-12-28T09:06:33.253Z,7.80
2022-12-28T09:09:06.300Z,7.80
2022-12-28T09:11:35.801Z,7.80
2022-12-28T09:14:04.799Z,7.80
2022-12-28T09:16:33.135Z,7.90
2022-12-28T09:19:03.340Z,7.90
2022-12-28T09:21:35.579Z,7.80
2022-12-28T09:24:04.686Z,7.90
2022-12-28T09:26:37.223Z,7.90
2022-12-28T09:29:08.853Z,8.00
2022-12-28T09:31:38.515Z,8.00
2022-12-28T09:34:35.696Z,8.00
2022-12-28T09:36:57.907Z,8.00
2022-12-28T09:39:26.339Z,8.10
2022-12-28T09:41:58.498Z,8.10
2022-12-28T09:44:46.284Z,8.10
2022-12-28T09:47:29.321Z,8.10
2022-12-28T09:50:28.594Z,8.20
2022-12-28T09:53:12.440Z,8.20
2022-12-28T09:55:44.987Z,8.20
2022-12-28T09:58:17.333Z,8.30
2022-12-28T10:00:48.078Z,8.30
2022-12-28T10:03:20.124Z,8.30
2022-12-28T10:05:49.585Z,8.40
2022-12-28T10:08:23.486Z,8.40
2022-12-28T10:10:52.900Z,8.30
2022-12-28T10:16:19.355Z,8.30
2022-12-28T10:18:48.257Z,8.30
2022-12-28T10:21:18.711Z,8.40
2022-12-28T10:24:21.221Z,8.50
2022-12-28T10:26:40.018Z,8.50
2022-12-28T10:29:17.749Z,8.50
2022-12-28T10:31:58.599Z,8.60
2022-12-28T10:34:33.381Z,8.60
2022-12-28T10:37:14.356Z,8.60
2022-12-28T10:39:52.083Z,8.60
2022-12-28T10:42:24.083Z,8.60
2022-12-28T10:44:52.327Z,8.60
2022-12-28T10:47:30.510Z,8.60
2022-12-28T10:52:57.999Z,8.60
2022-12-28T10:55:32.007Z,8.60
2022-12-28T10:58:29.075Z,8.50
2022-12-28T11:01:00.778Z,8.50
2022-12-28T11:03:32.563Z,8.60
2022-12-28T11:06:12.213Z,8.50
2022-12-28T11:08:42.993Z,8.60
2022-12-28T11:11:21.140Z,8.50
2022-12-28T11:13:53.988Z,8.60
2022-12-28T11:16:22.330Z,8.60
2022-12-28T11:18:51.139Z,8.70
2022-12-28T11:21:22.258Z,8.70
2022-12-28T11:23:52.218Z,8.80
2022-12-28T11:26:22.338Z,8.80
2022-12-28T11:28:52.865Z,8.70
2022-12-28T11:31:26.210Z,8.70
2022-12-28T11:33:58.002Z,8.70
2022-12-28T11:36:28.625Z,8.80
2022-12-28T11:38:57.764Z,8.80
2022-12-28T11:42:10.448Z,8.90
2022-12-28T11:44:52.871Z,8.90
2022-12-28T11:47:28.466Z,8.90
2022-12-28T11:50:16.984Z,8.80
2022-12-28T11:52:52.124Z,8.80
2022-12-28T11:55:57.469Z,8.90
2022-12-28T11:59:04.735Z,8.80
2022-12-28T12:01:47.395Z,8.80
2022-12-28T12:04:37.893Z,8.70
2022-12-28T12:07:23.667Z,8.70
2022-12-28T12:10:30.555Z,8.80
2022-12-28T12:12:59.657Z,8.80
2022-12-28T12:15:35.575Z,8.80
2022-12-28T12:18:07.051Z,8.80
2022-12-28T12:20:49.934Z,8.80
2022-12-28T12:23:30.415Z,8.90
2022-12-28T12:26:10.948Z,8.80
2022-12-28T12:28:45.298Z,8.90
2022-12-28T12:31:14.516Z,8.90
2022-12-28T12:33:47.239Z,8.90
2022-12-28T12:36:30.233Z,9.00
2022-12-28T12:39:25.490Z,9.00
2022-12-28T12:42:04.246Z,9.00
2022-12-28T12:44:41.005Z,9.00
2022-12-28T12:47:28.349Z,8.90
2022-12-28T12:50:29.649Z,9.00
2022-12-28T12:53:07.186Z,8.90
2022-12-28T12:55:57.104Z,8.90
2022-12-28T12:58:31.104Z,9.00
2022-12-28T13:01:18.527Z,9.00
2022-12-28T13:03:48.074Z,9.00
2022-12-28T13:06:19.166Z,9.00
2022-12-28T13:08:50.525Z,9.00
2022-12-28T13:11:20.312Z,9.00
2022-12-28T13:13:52.983Z,9.00
2022-12-28T13:16:23.974Z,9.00
2022-12-28T13:18:58.334Z,9.00
2022-12-28T13:21:27.832Z,9.00
2022-12-28T13:23:56.343Z,9.00
2022-12-28T13:26:28.708Z,9.00
2022-12-28T13:29:01.337Z,9.10
2022-12-28T13:31:35.178Z,9.10
2022-12-28T13:34:05.955Z,9.00
2022-12-28T13:36:34.374Z,9.00
2022-12-28T13:39:12.451Z,9.00
2022-12-28T13:41:48.577Z,9.00
2022-12-28T13:44:41.297Z,9.00
2022-12-28T13:47:16.313Z,9.00
2022-12-28T13:49:49.530Z,9.00
2022-12-28T13:52:22.155Z,9.00
2022-12-28T13:54:53.969Z,9.00
2022-12-28T14:00:18.114Z,9.00
2022-12-28T14:02:47.278Z,8.90
2022-12-28T14:05:20.153Z,8.90
2022-12-28T14:07:49.083Z,8.90
2022-12-28T14:10:18.044Z,8.90
2022-12-28T14:12:46.941Z,8.90
2022-12-28T14:15:17.270Z,8.90
2022-12-28T14:17:47.520Z,8.90
2022-12-28T14:20:15.976Z,9.00
2022-12-28T14:22:44.346Z,8.90
2022-12-28T14:25:15.263Z,8.90
2022-12-28T14:27:47.559Z,8.90
2022-12-28T14:30:26.709Z,8.90
2022-12-28T14:32:55.801Z,9.00
2022-12-28T14:35:26.192Z,8.90
2022-12-28T14:37:57.004Z,8.90
2022-12-28T14:40:29.456Z,8.90
2022-12-28T14:42:58.404Z,8.90
2022-12-28T14:46:06.717Z,8.90
2022-12-28T14:48:36.397Z,8.90
2022-12-28T14:51:06.667Z,8.90
2022-12-28T14:53:35.147Z,8.90
2022-12-28T14:56:11.114Z,8.90
2022-12-28T14:58:50.474Z,8.90
2022-12-28T15:01:21.859Z,8.80
2022-12-28T15:03:53.004Z,8.80
2022-12-28T15:06:21.406Z,8.80
2022-12-28T15:08:50.981Z,8.80
2022-12-28T15:11:20.419Z,8.80
2022-12-28T15:13:49.476Z,8.80
2022-12-28T15:16:19.166Z,8.80
2022-12-28T15:18:48.985Z,8.80
2022-12-28T15:21:20.159Z,8.90
2022-12-28T15:23:50.397Z,8.80
2022-12-28T15:26:18.693Z,8.70
2022-12-28T15:28:47.049Z,8.70
2022-12-28T15:31:18.396Z,8.70
2022-12-28T15:33:48.588Z,8.80
2022-12-28T15:36:19.276Z,8.70
2022-12-28T15:38:48.520Z,8.70
2022-12-28T15:41:35.696Z,8.60
2022-12-28T15:44:03.872Z,8.60
2022-12-28T15:46:32.495Z,8.60
2022-12-28T15:49:02.839Z,8.60
2022-12-28T15:51:31.346Z,8.60
2022-12-28T15:53:59.658Z,8.60
2022-12-28T15:56:29.575Z,8.50
2022-12-28T15:58:59.397Z,8.50
2022-12-28T16:01:30.005Z,8.50
2022-12-28T16:04:00.194Z,8.50
2022-12-28T16:06:31.732Z,8.50
2022-12-28T16:09:01.493Z,8.50
2022-12-28T16:11:34.584Z,8.50
2022-12-28T16:14:03.968Z,8.60
2022-12-28T16:16:37.075Z,8.50
2022-12-28T16:19:06.872Z,8.50
2022-12-28T16:21:37.046Z,8.50
2022-12-28T16:24:05.766Z,8.50
2022-12-28T16:26:34.053Z,8.50
2022-12-28T16:29:02.929Z,8.50
2022-12-28T16:31:33.322Z,8.50
2022-12-28T16:34:02.993Z,8.50
2022-12-28T16:36:31.779Z,8.50
2022-12-28T16:39:04.176Z,8.50
2022-12-28T16:41:37.448Z,8.50
2022-12-28T16:44:07.660Z,8.50
2022-12-28T16:46:36.232Z,8.40
2022-12-28T16:49:04.825Z,8.30
2022-12-28T16:51:33.233Z,8.30
2022-12-28T16:54:02.685Z,8.20
2022-12-28T16:56:30.782Z,8.20
2022-12-28T16:58:59.455Z,8.20
2022-12-28T17:01:28.369Z,8.10
2022-12-28T17:04:03.437Z,8.10
2022-12-28T17:06:32.200Z,8.00
2022-12-28T17:09:03.205Z,8.10
2022-12-28T17:11:31.780Z,8.00
2022-12-28T17:14:04.548Z,8.00
2022-12-28T17:16:33.513Z,8.00
2022-12-28T17:19:01.782Z,8.00
2022-12-28T17:21:31.016Z,8.00
2022-12-28T17:23:59.516Z,8.00
2022-12-28T17:26:28.983Z,8.00
2022-12-28T17:28:57.966Z,7.90
2022-12-28T17:31:26.804Z,8.00
2022-12-28T17:33:57.724Z,7.90
2022-12-28T17:36:26.331Z,7.90
2022-12-28T17:38:54.808Z,7.90
2022-12-28T17:41:25.395Z,7.90
2022-12-28T17:43:56.737Z,7.90
2022-12-28T17:46:26.047Z,7.90
2022-12-28T17:48:55.150Z,8.00
2022-12-28T17:51:25.304Z,7.90
2022-12-28T17:53:55.865Z,8.00
2022-12-28T17:56:24.201Z,7.90
2022-12-28T17:58:56.857Z,7.90
2022-12-28T18:01:25.682Z,7.90
2022-12-28T18:03:53.953Z,7.90
2022-12-28T18:06:22.196Z,7.90
2022-12-28T18:08:50.760Z,7.90
2022-12-28T18:11:19.196Z,7.90
2022-12-28T18:13:48.809Z,8.00
2022-12-28T18:16:21.160Z,8.00
2022-12-28T18:18:49.726Z,7.90
2022-12-28T18:21:21.997Z,7.90
2022-12-28T18:23:52.577Z,8.10
2022-12-28T18:26:22.743Z,8.10
2022-12-28T18:28:51.244Z,8.00
2022-12-28T18:31:20.981Z,8.10
2022-12-28T18:33:49.331Z,8.20
2022-12-28T18:36:18.632Z,8.20
2022-12-28T18:38:48.939Z,8.20
2022-12-28T18:41:20.671Z,8.20
2022-12-28T18:43:51.029Z,8.30
2022-12-28T18:46:20.739Z,8.20
2022-12-28T18:48:48.931Z,8.20
2022-12-28T18:51:20.999Z,8.20
2022-12-28T18:53:50.300Z,8.10
2022-12-28T18:56:21.187Z,8.00
2022-12-28T18:58:52.916Z,8.00
2022-12-28T19:04:13.365Z,7.90
2022-12-28T19:06:43.175Z,7.80
2022-12-28T19:09:11.891Z,7.80
2022-12-28T19:11:41.109Z,7.70
2022-12-28T19:14:12.815Z,7.70
2022-12-28T19:16:42.952Z,7.70
2022-12-28T19:19:11.487Z,7.70
2022-12-28T19:21:41.064Z,7.70
2022-12-28T19:24:13.670Z,7.60
2022-12-28T19:26:42.141Z,7.60
2022-12-28T19:29:12.028Z,7.70
2022-12-28T19:31:40.417Z,7.60
2022-12-28T19:34:10.139Z,7.60
2022-12-28T19:36:38.369Z,7.60
2022-12-28T19:39:06.647Z,7.60
2022-12-28T19:41:35.773Z,7.60
2022-12-28T19:44:03.913Z,7.60
2022-12-28T19:46:32.637Z,7.60
2022-12-28T19:49:02.952Z,7.60
2022-12-28T19:51:33.774Z,7.60
2022-12-28T19:54:02.251Z,7.60
2022-12-28T19:56:31.064Z,7.60
2022-12-28T19:59:05.559Z,7.60
2022-12-28T20:01:37.006Z,7.60
2022-12-28T20:04:12.925Z,7.60
2022-12-28T20:06:44.443Z,7.60
2022-12-28T20:09:14.429Z,7.60
2022-12-28T20:11:42.940Z,7.60
2022-12-28T20:14:13.105Z,7.60
2022-12-28T20:16:42.296Z,7.60
2022-12-28T20:19:11.899Z,7.60
2022-12-28T20:21:42.643Z,7.60
2022-12-28T20:24:13.027Z,7.60
2022-12-28T20:26:41.199Z,7.60
2022-12-28T20:29:09.492Z,7.60
2022-12-28T20:31:37.675Z,7.60
2022-12-28T20:34:05.970Z,7.60
2022-12-28T20:36:34.306Z,7.60
2022-12-28T20:39:04.651Z,7.70
2022-12-28T20:41:51.367Z,7.70
2022-12-28T20:44:24.014Z,7.70
2022-12-28T20:46:52.338Z,7.70
2022-12-28T20:49:20.823Z,7.60
2022-12-28T20:51:49.377Z,7.70
2022-12-28T20:54:20.458Z,7.70
2022-12-28T20:56:54.195Z,7.70
2022-12-28T20:59:24.738Z,7.70
2022-12-28T21:01:53.201Z,7.70
2022-12-28T21:04:24.162Z,7.70
2022-12-28T21:06:52.919Z,7.70
2022-12-28T21:09:23.044Z,7.70
2022-12-28T21:11:51.277Z,7.70
2022-12-28T21:14:19.866Z,7.80
2022-12-28T21:16:48.208Z,7.80
2022-12-28T21:19:16.784Z,7.70
2022-12-28T21:21:44.900Z,7.70
2022-12-28T21:24:13.110Z,7.80
2022-12-28T21:26:42.555Z,7.80
2022-12-28T21:29:10.836Z,7.70
2022-12-28T21:31:39.014Z,7.70
2022-12-28T21:34:07.321Z,7.80
2022-12-28T21:36:35.423Z,7.80
2022-12-28T21:39:03.878Z,7.80
2022-12-28T21:41:50.082Z,7.80
2022-12-28T21:44:21.299Z,7.90
2022-12-28T21:46:51.201Z,7.80
2022-12-28T21:49:20.163Z,7.90
2022-12-28T21:51:48.404Z,7.90
2022-12-28T21:54:18.810Z,7.90
2022-12-28T21:56:50.129Z,7.90
2022-12-28T21:59:19.905Z,7.90
2022-12-28T22:02:05.591Z,7.90
2022-12-28T22:04:56.895Z,7.90
2022-12-28T22:07:28.875Z,8.10
2022-12-28T22:10:22.573Z,8.10
2022-12-28T22:12:50.705Z,8.10
2022-12-28T22:15:40.048Z,8.10
2022-12-28T22:18:12.822Z,8.10
2022-12-28T22:20:48.186Z,8.20
2022-12-28T22:23:18.207Z,8.20
2022-12-28T22:25:46.724Z,8.20
2022-12-28T22:28:15.129Z,8.30
2022-12-28T22:30:44.560Z,8.20
2022-12-28T22:33:13.408Z,8.30
2022-12-28T22:35:41.474Z,8.30
2022-12-28T22:38:09.883Z,8.30
2022-12-28T22:40:38.043Z,8.30
2022-12-28T22:43:06.523Z,8.30
2022-12-28T22:45:34.696Z,8.30
2022-12-28T22:48:04.561Z,8.40
2022-12-28T22:50:34.796Z,8.40
2022-12-28T22:53:06.629Z,8.40
2022-12-28T22:55:34.923Z,8.40
2022-12-28T22:58:03.387Z,8.50
2022-12-28T23:00:31.528Z,8.50
2022-12-28T23:02:59.831Z,8.50
2022-12-28T23:05:29.372Z,8.50
2022-12-28T23:07:57.829Z,8.50
2022-12-28T23:10:25.935Z,8.50
2022-12-28T23:12:54.329Z,8.50
2022-12-28T23:15:24.776Z,8.50
2022-12-28T23:18:13.284Z,8.50
2022-12-28T23:21:00.555Z,8.50
2022-12-28T23:23:46.587Z,8.60
2022-12-28T23:26:31.912Z,8.60
2022-12-28T23:29:00.289Z,8.60
2022-12-28T23:31:29.128Z,8.60
2022-12-28T23:33:57.959Z,8.60
2022-12-28T23:36:27.463Z,8.60
2022-12-28T23:38:55.838Z,8.60
2022-12-28T23:41:41.186Z,8.70
2022-12-28T23:44:09.561Z,8.70
2022-12-28T23:46:37.748Z,8.70
2022-12-28T23:49:06.091Z,8.70
2022-12-28T23:51:35.689Z,8.80
2022-12-28T23:54:03.903Z,8.80
2022-12-28T23:56:32.263Z,8.80
2022-12-28T23:59:00.455Z,8.80
